Fort Wolters, Texas
Current Conditions -  °F | °C
As of 4:00 AM on Sunday 21 Dec 2014 (Local Time) from KMWL Reporting Station
Haze Haze  
Wind Chill: 41°   Ceiling: 2000
Heat Index: 46°   Visibility: 5mi
Dew Point: 44°   Wind: 9mph
Humidity: 93%   Direction: 150°SSE
Pressure: 30.07"   Gusts: NA
Location:  32.7965°N, 98.1108°W
Report Text: KMWL 211000Z AUTO 15008KT 5SM BR SCT006 OVC020 08/07 A3007 RMK AO2 T00780067
Loading
Personal Weather Stations






























Interactive Weather Map New forecast layout! Learn more

10-Day Weather Forecast

Advertisements
Track Severe Weather on mobile